sensor_id;sensor_type;location;lat;lon;timestamp;pressure;altitude;pressure_sealevel;temperature;humidity
51715;BME280;39115;59.332;18.034;2022-12-11T00:01:36;100807.03;;;-4.27;71.58
51715;BME280;39115;59.332;18.034;2022-12-11T00:04:02;100807.06;;;-4.29;72.10
51715;BME280;39115;59.332;18.034;2022-12-11T00:06:27;100813.16;;;-4.30;71.75
51715;BME280;39115;59.332;18.034;2022-12-11T00:08:53;100814.03;;;-4.31;72.29
51715;BME280;39115;59.332;18.034;2022-12-11T00:11:19;100814.00;;;-4.29;72.18
51715;BME280;39115;59.332;18.034;2022-12-11T00:13:45;100813.09;;;-4.28;72.03
51715;BME280;39115;59.332;18.034;2022-12-11T00:16:10;100813.09;;;-4.28;71.82
51715;BME280;39115;59.332;18.034;2022-12-11T00:18:35;100810.47;;;-4.26;72.24
51715;BME280;39115;59.332;18.034;2022-12-11T00:21:02;100819.97;;;-4.25;71.74
51715;BME280;39115;59.332;18.034;2022-12-11T00:23:27;100820.84;;;-4.25;72.44
51715;BME280;39115;59.332;18.034;2022-12-11T00:25:53;100813.03;;;-4.25;71.83
51715;BME280;39115;59.332;18.034;2022-12-11T00:28:18;100812.09;;;-4.22;71.60
51715;BME280;39115;59.332;18.034;2022-12-11T00:30:44;100813.78;;;-4.20;72.43
51715;BME280;39115;59.332;18.034;2022-12-11T00:33:09;100817.16;;;-4.16;71.61
51715;BME280;39115;59.332;18.034;2022-12-11T00:35:39;100823.19;;;-4.16;72.36
51715;BME280;39115;59.332;18.034;2022-12-11T00:38:04;100814.53;;;-4.16;71.99
51715;BME280;39115;59.332;18.034;2022-12-11T00:40:32;100818.84;;;-4.15;71.78
51715;BME280;39115;59.332;18.034;2022-12-11T00:42:57;100818.81;;;-4.14;71.62
51715;BME280;39115;59.332;18.034;2022-12-11T00:45:23;100811.84;;;-4.11;71.95
51715;BME280;39115;59.332;18.034;2022-12-11T00:47:48;100806.59;;;-4.10;71.66
51715;BME280;39115;59.332;18.034;2022-12-11T00:50:13;100810.91;;;-4.09;72.32
51715;BME280;39115;59.332;18.034;2022-12-11T00:52:38;100812.66;;;-4.09;72.33
51715;BME280;39115;59.332;18.034;2022-12-11T00:55:04;100814.44;;;-4.11;72.05
51715;BME280;39115;59.332;18.034;2022-12-11T00:57:30;100806.69;;;-4.13;72.53
51715;BME280;39115;59.332;18.034;2022-12-11T00:59:55;100809.28;;;-4.15;71.94
51715;BME280;39115;59.332;18.034;2022-12-11T01:02:20;100808.34;;;-4.12;72.42
51715;BME280;39115;59.332;18.034;2022-12-11T01:04:45;100813.44;;;-4.07;72.21
51715;BME280;39115;59.332;18.034;2022-12-11T01:07:11;100819.47;;;-4.05;72.16
51715;BME280;39115;59.332;18.034;2022-12-11T01:09:36;100815.97;;;-4.04;72.06
51715;BME280;39115;59.332;18.034;2022-12-11T01:12:20;100821.13;;;-4.03;71.99
51715;BME280;39115;59.332;18.034;2022-12-11T01:14:45;100812.38;;;-4.00;72.15
51715;BME280;39115;59.332;18.034;2022-12-11T01:17:11;100823.72;;;-4.01;72.54
51715;BME280;39115;59.332;18.034;2022-12-11T01:19:36;100818.47;;;-4.00;71.70
51715;BME280;39115;59.332;18.034;2022-12-11T01:22:01;100817.53;;;-3.97;71.86
51715;BME280;39115;59.332;18.034;2022-12-11T01:24:27;100828.75;;;-3.95;72.15
51715;BME280;39115;59.332;18.034;2022-12-11T01:26:52;100818.34;;;-3.95;72.29
51715;BME280;39115;59.332;18.034;2022-12-11T01:29:17;100826.16;;;-3.95;71.79
51715;BME280;39115;59.332;18.034;2022-12-11T01:31:43;100824.44;;;-3.96;71.95
51715;BME280;39115;59.332;18.034;2022-12-11T01:34:08;100822.78;;;-3.99;71.37
51715;BME280;39115;59.332;18.034;2022-12-11T01:36:33;100820.19;;;-4.00;72.01
51715;BME280;39115;59.332;18.034;2022-12-11T01:38:58;100824.56;;;-4.01;71.88
51715;BME280;39115;59.332;18.034;2022-12-11T01:41:24;100829.03;;;-4.06;71.92
51715;BME280;39115;59.332;18.034;2022-12-11T01:43:56;100829.09;;;-4.09;71.79
51715;BME280;39115;59.332;18.034;2022-12-11T01:46:22;100831.81;;;-4.14;72.34
51715;BME280;39115;59.332;18.034;2022-12-11T01:48:47;100830.97;;;-4.16;72.52
51715;BME280;39115;59.332;18.034;2022-12-11T01:51:12;100830.19;;;-4.18;71.68
51715;BME280;39115;59.332;18.034;2022-12-11T01:53:39;100837.13;;;-4.18;72.14
51715;BME280;39115;59.332;18.034;2022-12-11T01:56:07;100839.78;;;-4.20;71.49
51715;BME280;39115;59.332;18.034;2022-12-11T01:58:34;100846.75;;;-4.22;71.61
51715;BME280;39115;59.332;18.034;2022-12-11T02:01:02;100843.31;;;-4.22;72.22
51715;BME280;39115;59.332;18.034;2022-12-11T02:03:27;100840.75;;;-4.24;72.21
51715;BME280;39115;59.332;18.034;2022-12-11T02:05:53;100840.75;;;-4.24;72.19
51715;BME280;39115;59.332;18.034;2022-12-11T02:08:18;100850.34;;;-4.28;71.87
51715;BME280;39115;59.332;18.034;2022-12-11T02:15:59;100840.88;;;-4.30;72.40
51715;BME280;39115;59.332;18.034;2022-12-11T02:28:30;100842.47;;;-4.24;72.29
51715;BME280;39115;59.332;18.034;2022-12-11T02:31:01;100846.91;;;-4.28;71.88
51715;BME280;39115;59.332;18.034;2022-12-11T02:33:50;100844.31;;;-4.28;71.61
51715;BME280;39115;59.332;18.034;2022-12-11T02:36:13;100841.75;;;-4.31;71.63
51715;BME280;39115;59.332;18.034;2022-12-11T02:38:41;100831.41;;;-4.33;72.05
51715;BME280;39115;59.332;18.034;2022-12-11T02:41:07;100840.97;;;-4.33;71.66
51715;BME280;39115;59.332;18.034;2022-12-11T02:43:34;100827.22;;;-4.38;71.68
51715;BME280;39115;59.332;18.034;2022-12-11T02:46:02;100835.13;;;-4.43;72.56
51715;BME280;39115;59.332;18.034;2022-12-11T02:48:28;100835.16;;;-4.45;72.33
51715;BME280;39115;59.332;18.034;2022-12-11T02:50:55;100831.84;;;-4.50;72.00
51715;BME280;39115;59.332;18.034;2022-12-11T02:53:22;100838.81;;;-4.52;72.23
51715;BME280;39115;59.332;18.034;2022-12-11T02:55:51;100831.97;;;-4.56;72.34
51715;BME280;39115;59.332;18.034;2022-12-11T02:58:22;100832.03;;;-4.59;72.23
51715;BME280;39115;59.332;18.034;2022-12-11T03:00:49;100830.28;;;-4.58;71.86
51715;BME280;39115;59.332;18.034;2022-12-11T03:03:14;100826.78;;;-4.56;72.09
51715;BME280;39115;59.332;18.034;2022-12-11T03:05:40;100834.53;;;-4.54;72.07
51715;BME280;39115;59.332;18.034;2022-12-11T03:08:06;100833.66;;;-4.53;72.05
51715;BME280;39115;59.332;18.034;2022-12-11T03:10:31;100830.19;;;-4.54;72.01
51715;BME280;39115;59.332;18.034;2022-12-11T03:12:57;100826.78;;;-4.56;71.76
51715;BME280;39115;59.332;18.034;2022-12-11T03:15:36;100821.66;;;-4.59;72.10
51715;BME280;39115;59.332;18.034;2022-12-11T03:20:53;100832.19;;;-4.65;71.84
51715;BME280;39115;59.332;18.034;2022-12-11T03:23:27;100827.94;;;-4.69;71.95
51715;BME280;39115;59.332;18.034;2022-12-11T03:25:55;100826.28;;;-4.72;71.69
51715;BME280;39115;59.332;18.034;2022-12-11T03:28:28;100829.75;;;-4.73;72.07
51715;BME280;39115;59.332;18.034;2022-12-11T03:30:54;100831.50;;;-4.73;71.78
51715;BME280;39115;59.332;18.034;2022-12-11T03:33:42;100830.63;;;-4.74;72.17
51715;BME280;39115;59.332;18.034;2022-12-11T03:36:10;100838.38;;;-4.71;71.84
51715;BME280;39115;59.332;18.034;2022-12-11T03:38:39;100836.59;;;-4.69;72.25
51715;BME280;39115;59.332;18.034;2022-12-11T03:41:06;100845.22;;;-4.67;71.50
51715;BME280;39115;59.332;18.034;2022-12-11T03:43:33;100847.78;;;-4.65;71.87
51715;BME280;39115;59.332;18.034;2022-12-11T03:45:59;100841.69;;;-4.64;71.78
51715;BME280;39115;59.332;18.034;2022-12-11T03:48:26;100843.31;;;-4.60;71.91
51715;BME280;39115;59.332;18.034;2022-12-11T03:50:52;100845.84;;;-4.57;72.22
51715;BME280;39115;59.332;18.034;2022-12-11T03:53:18;100847.56;;;-4.56;71.62
51715;BME280;39115;59.332;18.034;2022-12-11T03:55:44;100857.13;;;-4.58;71.71
51715;BME280;39115;59.332;18.034;2022-12-11T03:58:10;100861.50;;;-4.60;72.23
51715;BME280;39115;59.332;18.034;2022-12-11T04:00:35;100862.34;;;-4.58;72.27
51715;BME280;39115;59.332;18.034;2022-12-11T04:03:01;100857.09;;;-4.55;71.80
51715;BME280;39115;59.332;18.034;2022-12-11T04:05:42;100850.94;;;-4.52;71.75
51715;BME280;39115;59.332;18.034;2022-12-11T04:08:08;100848.25;;;-4.49;71.73
51715;BME280;39115;59.332;18.034;2022-12-11T04:10:34;100862.03;;;-4.46;72.13
51715;BME280;39115;59.332;18.034;2022-12-11T04:12:59;100856.84;;;-4.46;71.98
51715;BME280;39115;59.332;18.034;2022-12-11T04:15:24;100855.16;;;-4.48;71.73
51715;BME280;39115;59.332;18.034;2022-12-11T04:17:50;100859.59;;;-4.52;71.50
51715;BME280;39115;59.332;18.034;2022-12-11T04:20:33;100860.47;;;-4.53;71.74
51715;BME280;39115;59.332;18.034;2022-12-11T04:23:17;100860.47;;;-4.53;72.35
51715;BME280;39115;59.332;18.034;2022-12-11T04:26:02;100861.25;;;-4.49;72.17
51715;BME280;39115;59.332;18.034;2022-12-11T04:28:28;100860.41;;;-4.50;71.95
51715;BME280;39115;59.332;18.034;2022-12-11T04:30:53;100863.06;;;-4.51;71.59
51715;BME280;39115;59.332;18.034;2022-12-11T04:33:18;100860.47;;;-4.51;71.67
51715;BME280;39115;59.332;18.034;2022-12-11T04:35:43;100857.91;;;-4.54;71.77
51715;BME280;39115;59.332;18.034;2022-12-11T04:38:08;100852.88;;;-4.61;72.09
51715;BME280;39115;59.332;18.034;2022-12-11T04:40:34;100861.59;;;-4.63;72.34
51715;BME280;39115;59.332;18.034;2022-12-11T04:42:59;100859.84;;;-4.63;71.87
51715;BME280;39115;59.332;18.034;2022-12-11T04:45:24;100871.13;;;-4.64;72.23
51715;BME280;39115;59.332;18.034;2022-12-11T04:47:50;100865.91;;;-4.64;71.57
51715;BME280;39115;59.332;18.034;2022-12-11T04:50:15;100867.69;;;-4.66;72.03
51715;BME280;39115;59.332;18.034;2022-12-11T04:52:41;100872.94;;;-4.67;72.21
51715;BME280;39115;59.332;18.034;2022-12-11T04:55:07;100874.59;;;-4.65;72.36
51715;BME280;39115;59.332;18.034;2022-12-11T04:57:32;100878.03;;;-4.63;71.74
51715;BME280;39115;59.332;18.034;2022-12-11T04:59:58;100873.66;;;-4.62;72.20
51715;BME280;39115;59.332;18.034;2022-12-11T05:02:24;100884.94;;;-4.62;72.20
51715;BME280;39115;59.332;18.034;2022-12-11T05:04:50;100883.19;;;-4.61;72.13
51715;BME280;39115;59.332;18.034;2022-12-11T05:07:15;100882.38;;;-4.63;71.51
51715;BME280;39115;59.332;18.034;2022-12-11T05:09:41;100895.38;;;-4.63;72.12
51715;BME280;39115;59.332;18.034;2022-12-11T05:12:06;100891.91;;;-4.64;71.86
51715;BME280;39115;59.332;18.034;2022-12-11T05:14:31;100887.53;;;-4.62;72.18
51715;BME280;39115;59.332;18.034;2022-12-11T05:16:57;100890.13;;;-4.62;72.12
51715;BME280;39115;59.332;18.034;2022-12-11T05:19:23;100891.03;;;-4.63;71.72
51715;BME280;39115;59.332;18.034;2022-12-11T05:21:48;100888.47;;;-4.66;71.66
51715;BME280;39115;59.332;18.034;2022-12-11T05:24:14;100905.81;;;-4.66;71.88
51715;BME280;39115;59.332;18.034;2022-12-11T05:26:39;100898.91;;;-4.67;72.15
51715;BME280;39115;59.332;18.034;2022-12-11T05:29:04;100898.06;;;-4.68;71.92
51715;BME280;39115;59.332;18.034;2022-12-11T05:31:29;100898.03;;;-4.66;72.16
51715;BME280;39115;59.332;18.034;2022-12-11T05:33:55;100896.25;;;-4.64;71.79
51715;BME280;39115;59.332;18.034;2022-12-11T05:36:24;100898.81;;;-4.63;72.06
51715;BME280;39115;59.332;18.034;2022-12-11T05:38:50;100903.19;;;-4.65;71.83
51715;BME280;39115;59.332;18.034;2022-12-11T05:41:17;100903.97;;;-4.61;71.92
51715;BME280;39115;59.332;18.034;2022-12-11T05:43:42;100906.59;;;-4.63;71.82
51715;BME280;39115;59.332;18.034;2022-12-11T05:46:18;100908.31;;;-4.62;71.70
51715;BME280;39115;59.332;18.034;2022-12-11T05:48:44;100903.13;;;-4.62;71.76
51715;BME280;39115;59.332;18.034;2022-12-11T05:51:11;100901.41;;;-4.63;71.73
51715;BME280;39115;59.332;18.034;2022-12-11T05:53:37;100904.84;;;-4.62;72.19
51715;BME280;39115;59.332;18.034;2022-12-11T05:56:03;100909.16;;;-4.61;72.27
51715;BME280;39115;59.332;18.034;2022-12-11T05:58:31;100909.16;;;-4.61;71.57
51715;BME280;39115;59.332;18.034;2022-12-11T06:00:57;100907.44;;;-4.61;72.14
51715;BME280;39115;59.332;18.034;2022-12-11T06:03:22;100914.34;;;-4.61;71.91
51715;BME280;39115;59.332;18.034;2022-12-11T06:05:47;100918.75;;;-4.65;71.94
51715;BME280;39115;59.332;18.034;2022-12-11T06:08:13;100911.84;;;-4.66;72.14
51715;BME280;39115;59.332;18.034;2022-12-11T06:10:43;100920.38;;;-4.59;72.25
51715;BME280;39115;59.332;18.034;2022-12-11T06:13:09;100922.97;;;-4.59;71.97
51715;BME280;39115;59.332;18.034;2022-12-11T06:15:34;100925.63;;;-4.61;71.62
51715;BME280;39115;59.332;18.034;2022-12-11T06:17:59;100925.63;;;-4.61;71.84
51715;BME280;39115;59.332;18.034;2022-12-11T06:20:24;100922.19;;;-4.63;71.91
51715;BME280;39115;59.332;18.034;2022-12-11T06:22:50;100921.34;;;-4.63;71.82
51715;BME280;39115;59.332;18.034;2022-12-11T06:25:15;100928.22;;;-4.61;72.19
51715;BME280;39115;59.332;18.034;2022-12-11T06:27:40;100928.13;;;-4.57;71.62
51715;BME280;39115;59.332;18.034;2022-12-11T06:30:06;100937.63;;;-4.55;72.33
51715;BME280;39115;59.332;18.034;2022-12-11T06:32:32;100939.31;;;-4.52;72.15
51715;BME280;39115;59.332;18.034;2022-12-11T06:34:57;100940.97;;;-4.50;72.26
51715;BME280;39115;59.332;18.034;2022-12-11T06:37:22;100937.50;;;-4.49;72.39
51715;BME280;39115;59.332;18.034;2022-12-11T06:39:47;100950.44;;;-4.47;71.73
51715;BME280;39115;59.332;18.034;2022-12-11T06:42:13;100939.22;;;-4.48;71.58
51715;BME280;39115;59.332;18.034;2022-12-11T06:44:38;100950.38;;;-4.44;71.76
51715;BME280;39115;59.332;18.034;2022-12-11T06:47:03;100952.06;;;-4.43;72.47
51715;BME280;39115;59.332;18.034;2022-12-11T06:49:29;100953.78;;;-4.42;72.14
51715;BME280;39115;59.332;18.034;2022-12-11T06:51:54;100954.66;;;-4.43;72.22
51715;BME280;39115;59.332;18.034;2022-12-11T06:54:19;100950.34;;;-4.42;72.10
51715;BME280;39115;59.332;18.034;2022-12-11T06:56:45;100960.69;;;-4.39;72.24
51715;BME280;39115;59.332;18.034;2022-12-11T06:59:10;100954.63;;;-4.40;72.20
51715;BME280;39115;59.332;18.034;2022-12-11T07:01:36;100955.50;;;-4.41;72.28
51715;BME280;39115;59.332;18.034;2022-12-11T07:04:02;100961.50;;;-4.37;71.99
51715;BME280;39115;59.332;18.034;2022-12-11T07:06:27;100964.06;;;-4.36;71.92
51715;BME280;39115;59.332;18.034;2022-12-11T07:08:52;100965.81;;;-4.36;72.00
51715;BME280;39115;59.332;18.034;2022-12-11T07:11:18;100966.63;;;-4.34;72.37
51715;BME280;39115;59.332;18.034;2022-12-11T07:13:44;100972.66;;;-4.32;71.64
51715;BME280;39115;59.332;18.034;2022-12-11T07:16:10;100969.97;;;-4.29;72.35
51715;BME280;39115;59.332;18.034;2022-12-11T07:18:36;100962.13;;;-4.28;72.30
51715;BME280;39115;59.332;18.034;2022-12-11T07:21:02;100969.94;;;-4.28;72.24
51715;BME280;39115;59.332;18.034;2022-12-11T07:23:27;100975.97;;;-4.25;71.60
51715;BME280;39115;59.332;18.034;2022-12-11T07:25:53;100966.34;;;-4.22;71.48
51715;BME280;39115;59.332;18.034;2022-12-11T07:28:19;100968.94;;;-4.20;71.81
51715;BME280;39115;59.332;18.034;2022-12-11T07:30:44;100975.81;;;-4.19;71.66
51715;BME280;39115;59.332;18.034;2022-12-11T07:33:09;100976.69;;;-4.19;71.72
51715;BME280;39115;59.332;18.034;2022-12-11T07:35:34;100983.59;;;-4.18;71.95
51715;BME280;39115;59.332;18.034;2022-12-11T07:38:00;100980.13;;;-4.18;71.69
51715;BME280;39115;59.332;18.034;2022-12-11T07:40:25;100985.31;;;-4.17;71.66
51715;BME280;39115;59.332;18.034;2022-12-11T07:42:51;100986.97;;;-4.14;71.72
51715;BME280;39115;59.332;18.034;2022-12-11T07:45:16;100988.66;;;-4.11;72.02
51715;BME280;39115;59.332;18.034;2022-12-11T07:47:42;100992.09;;;-4.09;72.07
51715;BME280;39115;59.332;18.034;2022-12-11T07:50:07;100990.31;;;-4.09;72.06
51715;BME280;39115;59.332;18.034;2022-12-11T07:52:33;100998.13;;;-4.09;72.27
51715;BME280;39115;59.332;18.034;2022-12-11T07:54:58;100989.44;;;-4.08;71.64
51715;BME280;39115;59.332;18.034;2022-12-11T07:57:23;100993.72;;;-4.05;71.43
51715;BME280;39115;59.332;18.034;2022-12-11T07:59:49;100989.34;;;-4.03;72.10
51715;BME280;39115;59.332;18.034;2022-12-11T08:02:14;100987.63;;;-4.04;71.75
51715;BME280;39115;59.332;18.034;2022-12-11T08:04:39;100987.63;;;-4.04;71.46
51715;BME280;39115;59.332;18.034;2022-12-11T08:07:05;100978.22;;;-4.10;72.10
51715;BME280;39115;59.332;18.034;2022-12-11T08:09:30;100990.47;;;-4.15;71.80
51715;BME280;39115;59.332;18.034;2022-12-11T08:11:55;100993.13;;;-4.18;72.32
51715;BME280;39115;59.332;18.034;2022-12-11T08:14:21;100994.84;;;-4.17;72.24
51715;BME280;39115;59.332;18.034;2022-12-11T08:16:46;100995.72;;;-4.17;71.63
51715;BME280;39115;59.332;18.034;2022-12-11T08:19:12;101000.03;;;-4.17;72.02
51715;BME280;39115;59.332;18.034;2022-12-11T08:21:37;100995.66;;;-4.15;72.27
51715;BME280;39115;59.332;18.034;2022-12-11T08:24:03;101004.22;;;-4.10;72.18
51715;BME280;39115;59.332;18.034;2022-12-11T08:26:29;101010.25;;;-4.08;71.51
51715;BME280;39115;59.332;18.034;2022-12-11T08:28:55;101001.63;;;-4.10;72.44
51715;BME280;39115;59.332;18.034;2022-12-11T08:31:21;101003.38;;;-4.10;71.96
51715;BME280;39115;59.332;18.034;2022-12-11T08:33:47;101011.09;;;-4.07;72.04
51715;BME280;39115;59.332;18.034;2022-12-11T08:36:14;101002.38;;;-4.05;71.94
51715;BME280;39115;59.332;18.034;2022-12-11T08:38:39;101015.34;;;-4.03;71.71
51715;BME280;39115;59.332;18.034;2022-12-11T08:41:14;101014.47;;;-4.04;71.68
51715;BME280;39115;59.332;18.034;2022-12-11T08:43:40;101013.63;;;-4.04;71.80
51715;BME280;39115;59.332;18.034;2022-12-11T08:46:05;101017.16;;;-4.07;71.94
51715;BME280;39115;59.332;18.034;2022-12-11T08:48:31;101017.19;;;-4.08;72.08
51715;BME280;39115;59.332;18.034;2022-12-11T08:51:00;101021.47;;;-4.07;71.91
51715;BME280;39115;59.332;18.034;2022-12-11T08:53:30;101017.94;;;-4.03;72.18
51715;BME280;39115;59.332;18.034;2022-12-11T08:56:06;101020.50;;;-4.02;71.54
51715;BME280;39115;59.332;18.034;2022-12-11T08:58:31;101021.38;;;-4.01;72.33
51715;BME280;39115;59.332;18.034;2022-12-11T09:00:57;101023.06;;;-4.00;72.27
51715;BME280;39115;59.332;18.034;2022-12-11T09:03:22;101021.28;;;-3.98;71.84
51715;BME280;39115;59.332;18.034;2022-12-11T09:05:48;101025.59;;;-3.97;72.09
51715;BME280;39115;59.332;18.034;2022-12-11T09:08:13;101028.19;;;-3.97;71.67
51715;BME280;39115;59.332;18.034;2022-12-11T09:10:39;101031.59;;;-3.93;71.65
51715;BME280;39115;59.332;18.034;2022-12-11T09:13:04;101027.25;;;-3.93;72.10
51715;BME280;39115;59.332;18.034;2022-12-11T09:15:29;101022.06;;;-3.94;72.39
51715;BME280;39115;59.332;18.034;2022-12-11T09:17:54;101028.16;;;-3.95;71.67
51715;BME280;39115;59.332;18.034;2022-12-11T09:20:20;101032.53;;;-3.96;72.09
51715;BME280;39115;59.332;18.034;2022-12-11T09:22:45;101033.41;;;-3.97;71.74
51715;BME280;39115;59.332;18.034;2022-12-11T09:25:10;101034.28;;;-3.98;71.54
51715;BME280;39115;59.332;18.034;2022-12-11T09:27:36;101030.81;;;-3.97;72.14
51715;BME280;39115;59.332;18.034;2022-12-11T09:30:01;101029.91;;;-3.96;71.48
51715;BME280;39115;59.332;18.034;2022-12-11T09:32:26;101028.94;;;-3.92;71.83
51715;BME280;39115;59.332;18.034;2022-12-11T09:34:52;101028.00;;;-3.88;71.84
51715;BME280;39115;59.332;18.034;2022-12-11T09:37:17;101038.31;;;-3.85;71.67
51715;BME280;39115;59.332;18.034;2022-12-11T09:39:42;101035.81;;;-3.88;71.53
51715;BME280;39115;59.332;18.034;2022-12-11T09:42:12;101035.81;;;-3.88;72.23
51715;BME280;39115;59.332;18.034;2022-12-11T09:47:19;101035.81;;;-3.88;71.89
51715;BME280;39115;59.332;18.034;2022-12-11T09:49:46;101034.91;;;-3.87;72.05
51715;BME280;39115;59.332;18.034;2022-12-11T09:52:21;101032.22;;;-3.84;72.20
51715;BME280;39115;59.332;18.034;2022-12-11T09:54:56;101034.81;;;-3.84;71.63
51715;BME280;39115;59.332;18.034;2022-12-11T09:57:28;101033.09;;;-3.83;72.15
51715;BME280;39115;59.332;18.034;2022-12-11T10:00:58;101030.50;;;-3.83;71.74
51715;BME280;39115;59.332;18.034;2022-12-11T10:02:57;101032.22;;;-3.82;71.87
51715;BME280;39115;59.332;18.034;2022-12-11T10:10:53;101029.56;;;-3.81;71.72
51715;BME280;39115;59.332;18.034;2022-12-11T10:16:03;101017.38;;;-3.78;71.99
51715;BME280;39115;59.332;18.034;2022-12-11T10:18:33;101019.19;;;-3.82;71.98
51715;BME280;39115;59.332;18.034;2022-12-11T10:20:59;101010.63;;;-3.86;71.44
51715;BME280;39115;59.332;18.034;2022-12-11T10:23:33;101021.03;;;-3.86;72.27
51715;BME280;39115;59.332;18.034;2022-12-11T10:28:31;101013.34;;;-3.92;71.68
51715;BME280;39115;59.332;18.034;2022-12-11T10:33:44;101024.66;;;-3.94;72.36
51715;BME280;39115;59.332;18.034;2022-12-11T10:36:10;101026.47;;;-3.97;72.51
51715;BME280;39115;59.332;18.034;2022-12-11T10:38:41;101027.38;;;-3.99;72.19
51715;BME280;39115;59.332;18.034;2022-12-11T10:41:11;101022.28;;;-4.04;71.94
51715;BME280;39115;59.332;18.034;2022-12-11T10:43:39;101020.66;;;-4.08;72.42
51715;BME280;39115;59.332;18.034;2022-12-11T10:46:06;101024.88;;;-4.04;72.04
51715;BME280;39115;59.332;18.034;2022-12-11T10:48:31;101029.19;;;-4.01;71.88
51715;BME280;39115;59.332;18.034;2022-12-11T10:51:01;101036.16;;;-4.03;71.81
51715;BME280;39115;59.332;18.034;2022-12-11T10:53:27;101037.00;;;-4.03;71.92
51715;BME280;39115;59.332;18.034;2022-12-11T10:55:53;101036.94;;;-4.00;71.94
51715;BME280;39115;59.332;18.034;2022-12-11T10:58:20;101040.38;;;-3.99;71.88
51715;BME280;39115;59.332;18.034;2022-12-11T11:00:48;101030.84;;;-4.00;71.94
51715;BME280;39115;59.332;18.034;2022-12-11T11:03:23;101028.25;;;-3.99;71.93
51715;BME280;39115;59.332;18.034;2022-12-11T11:05:49;101029.09;;;-3.98;72.18
51715;BME280;39115;59.332;18.034;2022-12-11T11:08:25;101036.84;;;-3.95;71.75
51715;BME280;39115;59.332;18.034;2022-12-11T11:10:58;101042.09;;;-3.97;72.08
51715;BME280;39115;59.332;18.034;2022-12-11T11:13:27;101038.59;;;-3.97;71.82
51715;BME280;39115;59.332;18.034;2022-12-11T11:16:06;101043.81;;;-3.97;71.92
51715;BME280;39115;59.332;18.034;2022-12-11T11:18:33;101049.97;;;-4.01;71.69
51715;BME280;39115;59.332;18.034;2022-12-11T11:20:59;101049.09;;;-4.02;71.94
51715;BME280;39115;59.332;18.034;2022-12-11T11:23:25;101042.13;;;-4.00;72.01
51715;BME280;39115;59.332;18.034;2022-12-11T11:25:54;101038.66;;;-3.99;72.50
51715;BME280;39115;59.332;18.034;2022-12-11T11:28:23;101034.28;;;-3.98;72.17
51715;BME280;39115;59.332;18.034;2022-12-11T11:30:56;101046.44;;;-3.99;71.50
51715;BME280;39115;59.332;18.034;2022-12-11T11:33:23;101037.00;;;-4.03;71.45
51715;BME280;39115;59.332;18.034;2022-12-11T11:38:18;101032.56;;;-3.98;71.66
51715;BME280;39115;59.332;18.034;2022-12-11T11:50:53;101039.69;;;-4.07;71.81
51715;BME280;39115;59.332;18.034;2022-12-11T11:55:53;101039.00;;;-4.16;72.02
51715;BME280;39115;59.332;18.034;2022-12-11T11:58:23;101031.28;;;-4.19;72.36
51715;BME280;39115;59.332;18.034;2022-12-11T12:00:54;101034.81;;;-4.23;72.29
51715;BME280;39115;59.332;18.034;2022-12-11T12:03:20;101035.69;;;-4.22;72.34
51715;BME280;39115;59.332;18.034;2022-12-11T12:11:02;101019.00;;;-4.12;72.29
51715;BME280;39115;59.332;18.034;2022-12-11T12:16:07;101025.81;;;-4.06;72.36
51715;BME280;39115;59.332;18.034;2022-12-11T12:34:09;101020.59;;;-4.06;71.66
51715;BME280;39115;59.332;18.034;2022-12-11T12:44:38;101014.81;;;-4.18;72.49
51715;BME280;39115;59.332;18.034;2022-12-11T12:47:10;101020.78;;;-4.14;71.78
51715;BME280;39115;59.332;18.034;2022-12-11T12:52:05;101022.50;;;-4.15;71.64
51715;BME280;39115;59.332;18.034;2022-12-11T12:54:34;101019.06;;;-4.15;72.14
51715;BME280;39115;59.332;18.034;2022-12-11T12:57:00;101022.50;;;-4.13;71.82
51715;BME280;39115;59.332;18.034;2022-12-11T12:59:26;101019.88;;;-4.11;71.55
51715;BME280;39115;59.332;18.034;2022-12-11T13:01:53;101021.59;;;-4.12;71.52
51715;BME280;39115;59.332;18.034;2022-12-11T13:04:34;101020.78;;;-4.14;71.68
51715;BME280;39115;59.332;18.034;2022-12-11T13:07:09;101016.53;;;-4.18;71.80
51715;BME280;39115;59.332;18.034;2022-12-11T13:09:35;101018.25;;;-4.17;72.11
51715;BME280;39115;59.332;18.034;2022-12-11T13:12:00;101027.72;;;-4.15;72.23
51715;BME280;39115;59.332;18.034;2022-12-11T13:14:36;101025.09;;;-4.13;71.86
51715;BME280;39115;59.332;18.034;2022-12-11T13:17:06;101027.72;;;-4.13;71.79
51715;BME280;39115;59.332;18.034;2022-12-11T13:19:32;101026.88;;;-4.15;71.41
51715;BME280;39115;59.332;18.034;2022-12-11T13:24:48;101036.53;;;-4.20;71.54
51715;BME280;39115;59.332;18.034;2022-12-11T13:27:24;101041.75;;;-4.22;71.52
51715;BME280;39115;59.332;18.034;2022-12-11T13:29:50;101043.50;;;-4.22;71.65
51715;BME280;39115;59.332;18.034;2022-12-11T13:34:41;101045.16;;;-4.20;71.47
51715;BME280;39115;59.332;18.034;2022-12-11T13:37:28;101044.28;;;-4.19;72.19
51715;BME280;39115;59.332;18.034;2022-12-11T13:39:55;101038.34;;;-4.24;71.39
51715;BME280;39115;59.332;18.034;2022-12-11T13:44:50;101022.75;;;-4.24;72.05
51715;BME280;39115;59.332;18.034;2022-12-11T13:47:16;101030.53;;;-4.24;72.08
51715;BME280;39115;59.332;18.034;2022-12-11T13:49:43;101034.03;;;-4.26;72.26
51715;BME280;39115;59.332;18.034;2022-12-11T13:52:16;101036.69;;;-4.28;71.97
51715;BME280;39115;59.332;18.034;2022-12-11T13:54:46;101030.63;;;-4.29;71.73
51715;BME280;39115;59.332;18.034;2022-12-11T13:57:22;101043.59;;;-4.27;72.08
51715;BME280;39115;59.332;18.034;2022-12-11T13:59:49;101031.44;;;-4.26;71.68
51715;BME280;39115;59.332;18.034;2022-12-11T14:04:40;101030.69;;;-4.32;72.17
51715;BME280;39115;59.332;18.034;2022-12-11T14:07:06;101033.28;;;-4.32;72.01
51715;BME280;39115;59.332;18.034;2022-12-11T14:09:32;101036.72;;;-4.31;71.85
51715;BME280;39115;59.332;18.034;2022-12-11T14:12:00;101031.56;;;-4.33;72.15
51715;BME280;39115;59.332;18.034;2022-12-11T14:17:13;101045.44;;;-4.32;72.26